KTXK/TXK METAR and TAF weather

Enter ICAO airport designator
Station Type Date Time Source
KTXK METAR 2020/09/27 01:53 UTC NOAA

KTXK 270153Z 12003KT 10SM CLR 18/17 A2989 RMK AO2 SLP119 T01830172


Station Type Date Time Source
KTXK Decoded METAR 2020/09/27 01:53 UTC NOAA

TEXARKANA RGNL WEBB FIELD, AR, United States (KTXK) 33-27N 093-59W 111M
Sep 26, 2020 - 09:53 PM EDT / 2020.09.27 0153 UTC
Wind: from the ESE (120 degrees) at 3 MPH (3 KT):0
Visibility: 10 mile(s):0
Sky conditions: clear
Temperature: 64.9 F (18.3 C)
Dew Point: 63.0 F (17.2 C)
Relative Humidity: 93%
Pressure (altimeter): 29.89 in. Hg (1012 hPa)
ob: KTXK 270153Z 12003KT 10SM CLR 18/17 A2989 RMK AO2 SLP119 T01830172
cycle: 2

Station Type Date Time Source
KTXK TAF 2020/09/26 18:24 UTC NOAA

TAF KTXK 261722Z 2618/2718 18007KT P6SM OVC015
FM262100 VRB03KT P6SM FEW040 FEW200
FM270900 VRB03KT 6SM BR BKN025
FM271500 20010KT P6SM BKN050

Example: see airport list